createdAt,value
2022-09-14T00:01:47.780Z,101254.59
2022-09-14T00:04:20.987Z,101259.69
2022-09-14T00:06:51.588Z,101258.78
2022-09-14T00:09:24.767Z,101264.94
2022-09-14T00:11:56.252Z,101254.09
2022-09-14T00:14:26.224Z,101262.94
2022-09-14T00:16:55.557Z,101261.84
2022-09-14T00:19:29.894Z,101253.66
2022-09-14T00:22:01.627Z,101258.56
2022-09-14T00:24:36.731Z,101259.28
2022-09-14T00:27:06.778Z,101254.84
2022-09-14T00:29:36.879Z,101262.66
2022-09-14T00:32:07.982Z,101266.09
2022-09-14T00:34:38.453Z,101269.75
2022-09-14T00:37:08.360Z,101270.47
2022-09-14T00:39:38.936Z,101275.78
2022-09-14T00:42:09.156Z,101280.88
2022-09-14T00:44:39.077Z,101278.94
2022-09-14T00:47:09.071Z,101280.72
2022-09-14T00:49:42.189Z,101277.91
2022-09-14T00:52:15.487Z,101279.94
2022-09-14T00:54:48.361Z,101273.59
2022-09-14T00:57:19.983Z,101282.91
2022-09-14T00:59:52.634Z,101272.47
2022-09-14T01:02:25.635Z,101275.50
2022-09-14T01:04:56.043Z,101280.81
2022-09-14T01:07:50.086Z,101277.75
2022-09-14T01:10:47.118Z,101273.91
2022-09-14T01:13:39.565Z,101265.06
2022-09-14T01:16:17.397Z,101267.94
2022-09-14T01:18:53.468Z,101268.63
2022-09-14T01:21:34.881Z,101274.97
2022-09-14T01:24:20.709Z,101269.22
2022-09-14T01:27:27.734Z,101267.81
2022-09-14T01:30:22.724Z,101267.44
2022-09-14T01:33:04.307Z,101272.50
2022-09-14T01:35:48.686Z,101266.13
2022-09-14T01:38:32.232Z,101266.81
2022-09-14T01:41:06.200Z,101272.13
2022-09-14T01:43:39.540Z,101265.78
2022-09-14T01:46:31.430Z,101272.69
2022-09-14T01:49:05.151Z,101271.47
2022-09-14T01:51:48.025Z,101271.59
2022-09-14T01:54:30.019Z,101274.16
2022-09-14T01:57:29.031Z,101272.13
2022-09-14T02:00:03.496Z,101278.22
2022-09-14T02:02:43.704Z,101268.28
2022-09-14T02:05:29.516Z,101262.16
2022-09-14T02:07:59.683Z,101257.66
2022-09-14T02:10:31.804Z,101256.94
2022-09-14T02:13:02.974Z,101256.25
2022-09-14T02:15:33.942Z,101255.00
2022-09-14T02:18:05.991Z,101255.09
2022-09-14T02:20:41.720Z,101248.09
2022-09-14T02:23:12.354Z,101247.63
2022-09-14T02:25:43.275Z,101234.97
2022-09-14T02:28:15.977Z,101234.25
2022-09-14T02:31:06.570Z,101230.75
2022-09-14T02:33:50.438Z,101235.22
2022-09-14T02:36:48.974Z,101233.41
2022-09-14T02:39:45.036Z,101230.19
2022-09-14T02:42:28.673Z,101229.69
2022-09-14T02:45:37.144Z,101227.06
2022-09-14T02:48:22.783Z,101212.78
2022-09-14T02:51:29.756Z,101210.94
2022-09-14T02:54:21.913Z,101211.03
2022-09-14T02:56:52.414Z,101200.50
2022-09-14T02:59:22.458Z,101202.22
2022-09-14T03:01:52.626Z,101200.38
2022-09-14T03:04:23.660Z,101188.53
2022-09-14T03:06:54.197Z,101193.44
2022-09-14T03:09:24.407Z,101183.72
2022-09-14T03:11:54.452Z,101177.78
2022-09-14T03:14:23.935Z,101180.81
2022-09-14T03:16:53.903Z,101175.13
2022-09-14T03:19:24.014Z,101167.28
2022-09-14T03:21:54.146Z,101174.13
2022-09-14T03:24:24.176Z,101158.09
2022-09-14T03:26:54.278Z,101153.22
2022-09-14T03:29:24.849Z,101155.44
2022-09-14T03:31:56.516Z,101149.75
2022-09-14T03:34:26.704Z,101143.81
2022-09-14T03:36:56.735Z,101137.88
2022-09-14T03:39:26.689Z,101131.97
2022-09-14T03:41:57.069Z,101121.41
2022-09-14T03:44:27.334Z,101135.84
2022-09-14T03:46:57.354Z,101127.44
2022-09-14T03:49:28.119Z,101119.84
2022-09-14T03:52:02.330Z,101123.13
2022-09-14T03:54:33.049Z,101123.72
2022-09-14T03:57:03.203Z,101115.88
2022-09-14T03:59:33.226Z,101115.63
2022-09-14T04:02:03.997Z,101102.84
2022-09-14T04:04:34.337Z,101102.03
2022-09-14T04:07:05.534Z,101107.19
2022-09-14T04:09:35.676Z,101095.25
2022-09-14T04:12:06.150Z,101095.25
2022-09-14T04:14:36.101Z,101091.47
2022-09-14T04:17:06.451Z,101086.03
2022-09-14T04:19:39.005Z,101102.34
2022-09-14T04:22:09.043Z,101095.81
2022-09-14T04:24:39.474Z,101090.13
2022-09-14T04:27:09.575Z,101096.94
2022-09-14T04:29:39.852Z,101080.66
2022-09-14T04:32:10.393Z,101082.28
2022-09-14T04:34:40.638Z,101071.97
2022-09-14T04:37:10.916Z,101078.78
2022-09-14T04:39:41.931Z,101060.31
2022-09-14T04:42:12.245Z,101060.88
2022-09-14T04:44:41.769Z,101053.59
2022-09-14T04:47:11.808Z,101052.50
2022-09-14T04:49:45.028Z,101042.19
2022-09-14T04:52:16.198Z,101039.22
2022-09-14T04:54:46.485Z,101023.47
2022-09-14T04:57:16.441Z,101027.84
2022-09-14T04:59:46.496Z,101019.44
2022-09-14T05:02:16.678Z,101021.06
2022-09-14T05:04:46.996Z,101017.84
2022-09-14T05:07:17.209Z,101011.06
2022-09-14T05:09:47.907Z,101005.63
2022-09-14T05:12:18.408Z,101005.88
2022-09-14T05:14:49.226Z,100999.91
2022-09-14T05:17:20.294Z,100993.06
2022-09-14T05:19:50.359Z,100993.91
2022-09-14T05:22:23.393Z,100987.63
2022-09-14T05:24:52.806Z,100984.13
2022-09-14T05:27:29.104Z,100978.72
2022-09-14T05:30:03.680Z,100972.75
2022-09-14T05:32:37.932Z,100970.84
2022-09-14T05:35:09.765Z,100965.16
2022-09-14T05:37:46.083Z,100965.19
2022-09-14T05:40:16.356Z,100957.88
2022-09-14T05:42:46.804Z,100960.34
2022-09-14T05:45:20.854Z,100954.66
2022-09-14T05:47:51.463Z,100949.22
2022-09-14T05:50:24.757Z,100949.25
2022-09-14T05:52:58.842Z,100945.75
2022-09-14T05:55:29.742Z,100935.16
2022-09-14T05:58:00.377Z,100934.03
2022-09-14T06:00:30.949Z,100935.41
2022-09-14T06:03:07.876Z,100931.59
2022-09-14T06:05:41.958Z,100931.06
2022-09-14T06:08:15.964Z,100920.19
2022-09-14T06:10:46.149Z,100921.25
2022-09-14T06:13:26.841Z,100914.75
2022-09-14T06:16:02.955Z,100897.63
2022-09-14T06:18:44.617Z,100902.81
2022-09-14T06:21:18.310Z,100896.56
2022-09-14T06:23:53.278Z,100892.50
2022-09-14T06:26:23.529Z,100894.38
2022-09-14T06:28:58.050Z,100884.88
2022-09-14T06:31:29.248Z,100882.44
2022-09-14T06:34:02.905Z,100874.00
2022-09-14T06:36:33.402Z,100871.28
2022-09-14T06:39:04.463Z,100877.28
2022-09-14T06:41:35.712Z,100869.66
2022-09-14T06:44:05.890Z,100874.28
2022-09-14T06:46:37.275Z,100867.47
2022-09-14T06:49:12.266Z,100858.50
2022-09-14T06:51:44.881Z,100857.13
2022-09-14T06:54:16.737Z,100851.97
2022-09-14T06:56:49.249Z,100849.81
2022-09-14T06:59:20.903Z,100847.34
2022-09-14T07:01:51.467Z,100845.16
2022-09-14T07:04:28.485Z,100849.00
2022-09-14T07:07:05.161Z,100836.47
2022-09-14T07:09:38.972Z,100833.22
2022-09-14T07:12:11.007Z,100839.72
2022-09-14T07:14:41.127Z,100833.22
2022-09-14T07:17:12.308Z,100826.13
2022-09-14T07:19:42.562Z,100819.88
2022-09-14T07:22:12.903Z,100821.22
2022-09-14T07:24:43.087Z,100813.91
2022-09-14T07:27:12.566Z,100814.16
2022-09-14T07:29:45.872Z,100810.88
2022-09-14T07:32:15.985Z,100807.63
2022-09-14T07:34:50.172Z,100804.38
2022-09-14T07:37:20.714Z,100796.19
2022-09-14T07:39:58.544Z,100801.38
2022-09-14T07:42:40.538Z,100799.44
2022-09-14T07:45:11.208Z,100794.53
2022-09-14T07:47:42.250Z,100800.50
2022-09-14T07:50:13.047Z,100793.13
2022-09-14T07:52:43.239Z,100797.78
2022-09-14T07:55:13.836Z,100791.78
2022-09-14T07:57:55.610Z,100788.53
2022-09-14T08:00:26.931Z,100790.94
2022-09-14T08:02:59.218Z,100794.22
2022-09-14T08:05:29.161Z,100782.50
2022-09-14T08:07:59.247Z,100791.22
2022-09-14T08:10:29.485Z,100783.59
2022-09-14T08:12:59.144Z,100784.13
2022-09-14T08:15:29.683Z,100792.84
2022-09-14T08:17:59.945Z,100787.13
2022-09-14T08:20:30.926Z,100789.84
2022-09-14T08:23:01.498Z,100784.38
2022-09-14T08:25:35.006Z,100786.84
2022-09-14T08:28:04.933Z,100783.03
2022-09-14T08:30:34.962Z,100784.69
2022-09-14T08:33:06.046Z,100777.66
2022-09-14T08:35:57.033Z,100767.56
2022-09-14T08:38:26.667Z,100765.38
2022-09-14T08:41:00.590Z,100771.66
2022-09-14T08:43:35.240Z,100764.31
2022-09-14T08:46:10.996Z,100766.78
2022-09-14T08:48:50.897Z,100771.94
2022-09-14T08:51:24.981Z,100774.41
2022-09-14T08:53:58.376Z,100777.69
2022-09-14T08:56:47.312Z,100771.16
2022-09-14T08:59:45.328Z,100777.97
2022-09-14T09:03:06.249Z,100772.78
2022-09-14T09:05:51.984Z,100770.38
2022-09-14T09:08:47.981Z,100771.19
2022-09-14T09:11:28.514Z,100771.72
2022-09-14T09:13:59.184Z,100773.09
2022-09-14T09:16:30.482Z,100767.13
2022-09-14T09:19:10.027Z,100765.19
2022-09-14T09:21:47.128Z,100769.81
2022-09-14T09:24:36.910Z,100767.91
2022-09-14T09:27:15.432Z,100764.13
2022-09-14T09:29:46.004Z,100769.00
2022-09-14T09:32:20.747Z,100769.53
2022-09-14T09:35:22.472Z,100763.56
2022-09-14T09:38:17.466Z,100771.97
2022-09-14T09:41:24.285Z,100768.44
2022-09-14T09:44:11.759Z,100761.34
2022-09-14T09:47:01.291Z,100751.84
2022-09-14T09:49:41.407Z,100757.50
2022-09-14T09:52:19.040Z,100765.63
2022-09-14T09:54:55.040Z,100761.28
2022-09-14T09:57:33.036Z,100758.81
2022-09-14T10:00:21.313Z,100758.00
2022-09-14T10:02:56.279Z,100764.75
2022-09-14T10:05:30.389Z,100765.56
2022-09-14T10:08:01.256Z,100763.91
2022-09-14T10:10:37.291Z,100763.88
2022-09-14T10:13:18.634Z,100769.56
2022-09-14T10:15:51.180Z,100766.81
2022-09-14T10:18:22.527Z,100768.66
2022-09-14T10:20:55.299Z,100773.00
2022-09-14T10:23:28.606Z,100763.19
2022-09-14T10:26:17.049Z,100771.31
2022-09-14T10:28:49.686Z,100765.84
2022-09-14T10:31:19.753Z,100771.25
2022-09-14T10:33:53.571Z,100770.69
2022-09-14T10:36:33.877Z,100768.50
2022-09-14T10:39:32.516Z,100766.56
2022-09-14T10:42:20.669Z,100769.78
2022-09-14T10:45:30.924Z,100770.59
2022-09-14T10:48:31.567Z,100773.28
2022-09-14T10:51:14.168Z,100784.06
2022-09-14T10:53:51.432Z,100786.16
2022-09-14T10:56:55.115Z,100779.63
2022-09-14T10:59:34.029Z,100791.00
2022-09-14T11:02:30.809Z,100786.88
2022-09-14T11:05:30.524Z,100782.50
2022-09-14T11:08:16.078Z,100789.78
2022-09-14T11:11:10.676Z,100787.84
2022-09-14T11:13:48.514Z,100795.69
2022-09-14T11:16:45.601Z,100785.84
2022-09-14T11:19:37.215Z,100792.56
2022-09-14T11:22:24.151Z,100795.22
2022-09-14T11:25:12.699Z,100802.47
2022-09-14T11:27:46.442Z,100800.03
2022-09-14T11:30:22.275Z,100811.13
2022-09-14T11:32:57.717Z,100808.41
2022-09-14T11:35:47.321Z,100806.78
2022-09-14T11:38:23.660Z,100820.03
2022-09-14T11:41:15.966Z,100814.00
2022-09-14T11:43:56.357Z,100822.91
2022-09-14T11:46:33.448Z,100819.63
2022-09-14T11:49:35.789Z,100825.59
2022-09-14T11:52:25.044Z,100830.22
2022-09-14T11:54:56.921Z,100827.75
2022-09-14T11:57:32.540Z,100835.03
2022-09-14T12:00:08.696Z,100829.63
2022-09-14T12:02:39.593Z,100828.81
2022-09-14T12:05:09.664Z,100829.63
2022-09-14T12:07:48.291Z,100831.78
2022-09-14T12:10:22.207Z,100830.97
2022-09-14T12:13:11.924Z,100840.38
2022-09-14T12:15:42.990Z,100845.50
2022-09-14T12:18:13.089Z,100843.31
2022-09-14T12:21:01.277Z,100839.44
2022-09-14T12:23:43.398Z,100842.69
2022-09-14T12:26:14.147Z,100845.91
2022-09-14T12:28:53.588Z,100840.97
2022-09-14T12:31:34.044Z,100843.63
2022-09-14T12:34:24.951Z,100839.78
2022-09-14T12:36:55.101Z,100851.09
2022-09-14T12:39:28.277Z,100849.97
2022-09-14T12:41:58.237Z,100848.56
2022-09-14T12:44:40.389Z,100840.13
2022-09-14T12:47:32.396Z,100842.28
2022-09-14T12:50:12.837Z,100846.56
2022-09-14T12:53:31.556Z,100850.00
2022-09-14T12:56:06.795Z,100849.09
2022-09-14T12:58:45.780Z,100856.06
2022-09-14T13:01:37.637Z,100852.22
2022-09-14T13:04:17.164Z,100860.00
2022-09-14T13:06:50.840Z,100864.03
2022-09-14T13:09:24.335Z,100863.47
2022-09-14T13:12:11.141Z,100869.13
2022-09-14T13:14:57.600Z,100874.84
2022-09-14T13:17:28.325Z,100875.34
2022-09-14T13:20:02.414Z,100872.63
2022-09-14T13:22:36.364Z,100875.59
2022-09-14T13:25:07.302Z,100871.50
2022-09-14T13:27:41.585Z,100876.31
2022-09-14T13:30:23.799Z,100872.00
2022-09-14T13:32:58.119Z,100884.94
2022-09-14T13:36:02.443Z,100887.03
2022-09-14T13:38:37.925Z,100887.81
2022-09-14T13:41:21.292Z,100883.69
2022-09-14T13:43:55.634Z,100887.47
2022-09-14T13:46:29.192Z,100895.59
2022-09-14T13:49:01.174Z,100893.13
2022-09-14T13:51:32.002Z,100896.88
2022-09-14T13:54:30.163Z,100893.38
2022-09-14T13:57:20.569Z,100892.22
2022-09-14T14:00:22.879Z,100911.97
2022-09-14T14:02:56.203Z,100906.22
2022-09-14T14:05:32.703Z,100908.94
2022-09-14T14:08:06.194Z,100906.69
2022-09-14T14:10:47.880Z,100907.19
2022-09-14T14:13:30.866Z,100910.72
2022-09-14T14:16:19.238Z,100909.06
2022-09-14T14:18:58.226Z,100907.69
2022-09-14T14:21:34.330Z,100909.81
2022-09-14T14:24:29.740Z,100914.63
2022-09-14T14:27:00.858Z,100910.53
2022-09-14T14:29:32.493Z,100910.75
2022-09-14T14:32:03.098Z,100912.88
2022-09-14T14:34:37.408Z,100912.56
2022-09-14T14:37:07.700Z,100917.38
2022-09-14T14:39:40.400Z,100923.84
2022-09-14T14:42:12.599Z,100919.50
2022-09-14T14:44:43.611Z,100918.66
2022-09-14T14:47:16.354Z,100908.69
2022-09-14T14:49:45.960Z,100912.69
2022-09-14T14:52:16.750Z,100913.84
2022-09-14T14:54:47.167Z,100917.63
2022-09-14T14:57:18.969Z,100918.66
2022-09-14T14:59:54.328Z,100912.69
2022-09-14T15:02:26.340Z,100914.81
2022-09-14T15:04:56.717Z,100916.09
2022-09-14T15:07:27.610Z,100912.03
2022-09-14T15:10:00.758Z,100909.56
2022-09-14T15:12:31.497Z,100903.34
2022-09-14T15:15:02.382Z,100914.16
2022-09-14T15:17:33.171Z,100911.69
2022-09-14T15:20:03.797Z,100903.81
2022-09-14T15:22:34.452Z,100903.81
2022-09-14T15:25:06.219Z,100904.88
2022-09-14T15:27:36.893Z,100902.16
2022-09-14T15:30:10.962Z,100896.19
2022-09-14T15:32:42.353Z,100897.25
2022-09-14T15:35:15.327Z,100903.72
2022-09-14T15:37:45.893Z,100896.69
2022-09-14T15:40:16.644Z,100896.69
2022-09-14T15:42:47.335Z,100899.63
2022-09-14T15:45:19.374Z,100899.88
2022-09-14T15:47:53.089Z,100894.69
2022-09-14T15:50:24.716Z,100899.53
2022-09-14T15:52:59.145Z,100896.50
2022-09-14T15:55:32.995Z,100889.44
2022-09-14T15:58:04.027Z,100889.66
2022-09-14T16:00:35.653Z,100885.34
2022-09-14T16:03:06.995Z,100885.59
2022-09-14T16:05:41.915Z,100887.22
2022-09-14T16:08:12.525Z,100875.25
2022-09-14T16:10:42.852Z,100873.88
2022-09-14T16:13:13.251Z,100874.09
2022-09-14T16:15:44.484Z,100875.16
2022-09-14T16:18:15.098Z,100868.38
2022-09-14T16:20:45.969Z,100869.66
2022-09-14T16:23:16.569Z,100873.44
2022-09-14T16:25:46.865Z,100870.72
2022-09-14T16:28:17.354Z,100881.75
2022-09-14T16:30:49.627Z,100870.13
2022-09-14T16:33:20.604Z,100871.78
2022-09-14T16:35:51.286Z,100870.97
2022-09-14T16:38:23.017Z,100863.09
2022-09-14T16:41:01.485Z,100867.69
2022-09-14T16:43:33.878Z,100863.56
2022-09-14T16:46:13.950Z,100861.94
2022-09-14T16:48:51.320Z,100861.53
2022-09-14T16:51:25.286Z,100855.22
2022-09-14T16:53:56.330Z,100861.34
2022-09-14T16:56:32.636Z,100862.63
2022-09-14T16:59:05.069Z,100863.38
2022-09-14T17:01:38.934Z,100867.13
2022-09-14T17:04:16.217Z,100865.22
2022-09-14T17:06:47.706Z,100864.41
2022-09-14T17:09:21.773Z,100860.06
2022-09-14T17:11:52.773Z,100860.91
2022-09-14T17:14:27.964Z,100856.56
2022-09-14T17:16:59.087Z,100851.38
2022-09-14T17:19:30.304Z,100842.47
2022-09-14T17:22:00.394Z,100848.13
2022-09-14T17:24:31.748Z,100848.34
2022-09-14T17:27:01.745Z,100839.22
2022-09-14T17:29:36.938Z,100845.06
2022-09-14T17:32:08.480Z,100838.03
2022-09-14T17:34:41.552Z,100836.41
2022-09-14T17:37:11.667Z,100839.09
2022-09-14T17:39:41.642Z,100838.53
2022-09-14T17:42:11.599Z,100836.88
2022-09-14T17:44:42.220Z,100826.53
2022-09-14T17:47:12.723Z,100829.13
2022-09-14T17:49:42.837Z,100817.19
2022-09-14T17:52:13.676Z,100818.50
2022-09-14T17:54:44.470Z,100814.13
2022-09-14T17:57:18.083Z,100812.25
2022-09-14T17:59:48.887Z,100810.41
2022-09-14T18:02:19.811Z,100801.97
2022-09-14T18:04:50.607Z,100795.38
2022-09-14T18:07:20.870Z,100799.16
2022-09-14T18:10:11.389Z,100800.19
2022-09-14T18:12:41.757Z,100795.84
2022-09-14T18:15:15.238Z,100788.81
2022-09-14T18:17:47.619Z,100792.56
2022-09-14T18:20:18.407Z,100793.06
2022-09-14T18:22:48.541Z,100788.72
2022-09-14T18:25:18.730Z,100785.91
2022-09-14T18:27:48.682Z,100787.19
2022-09-14T18:30:19.068Z,100776.84
2022-09-14T18:32:49.562Z,100776.50
2022-09-14T18:35:19.789Z,100779.66
2022-09-14T18:37:49.779Z,100775.31
2022-09-14T18:40:20.400Z,100773.13
2022-09-14T18:43:00.043Z,100769.84
2022-09-14T18:45:32.160Z,100767.59
2022-09-14T18:48:02.304Z,100765.94
2022-09-14T18:50:32.501Z,100767.25
2022-09-14T18:53:02.440Z,100761.88
2022-09-14T18:55:35.131Z,100764.78
2022-09-14T18:58:06.368Z,100758.81
2022-09-14T19:00:36.267Z,100751.78
2022-09-14T19:03:06.321Z,100759.28
2022-09-14T19:05:40.386Z,100765.13
2022-09-14T19:08:14.875Z,100758.34
2022-09-14T19:10:45.045Z,100753.19
2022-09-14T19:13:15.162Z,100758.47
2022-09-14T19:15:46.047Z,100762.44
2022-09-14T19:18:16.690Z,100757.19
2022-09-14T19:21:05.803Z,100754.34
2022-09-14T19:23:38.188Z,100748.63
2022-09-14T19:26:24.912Z,100750.13
2022-09-14T19:28:56.277Z,100747.56
2022-09-14T19:31:26.899Z,100732.97
2022-09-14T19:34:01.709Z,100733.81
2022-09-14T19:36:35.040Z,100734.84
2022-09-14T19:39:06.729Z,100732.38
2022-09-14T19:41:37.366Z,100728.28
2022-09-14T19:44:09.034Z,100733.69
2022-09-14T19:46:40.863Z,100722.53
2022-09-14T19:49:23.402Z,100719.00
2022-09-14T19:51:55.107Z,100723.00
2022-09-14T19:54:25.525Z,100715.97
2022-09-14T19:56:55.639Z,100713.53
2022-09-14T19:59:25.744Z,100713.97
2022-09-14T20:01:56.035Z,100709.84
2022-09-14T20:04:27.195Z,100703.91
2022-09-14T20:06:58.013Z,100715.72
2022-09-14T20:09:28.063Z,100704.34
2022-09-14T20:11:57.601Z,100702.72
2022-09-14T20:14:28.188Z,100694.75
2022-09-14T20:17:00.566Z,100696.97
2022-09-14T20:19:32.405Z,100687.03
2022-09-14T20:22:02.342Z,100688.09
2022-09-14T20:24:33.709Z,100695.56
2022-09-14T20:27:05.181Z,100680.69
2022-09-14T20:29:36.731Z,100689.81
2022-09-14T20:32:08.221Z,100681.97
2022-09-14T20:34:38.692Z,100679.75
2022-09-14T20:37:08.653Z,100675.88
2022-09-14T20:39:39.524Z,100673.03
2022-09-14T20:42:09.697Z,100676.44
2022-09-14T20:44:39.688Z,100673.53
2022-09-14T20:47:09.754Z,100671.88
2022-09-14T20:49:40.385Z,100669.41
2022-09-14T20:52:10.739Z,100667.16
2022-09-14T20:54:40.686Z,100668.22
2022-09-14T20:57:11.229Z,100662.50
2022-09-14T20:59:41.205Z,100668.22
2022-09-14T21:02:12.302Z,100657.69
2022-09-14T21:04:42.255Z,100656.28
2022-09-14T21:07:13.814Z,100662.72
2022-09-14T21:09:43.886Z,100660.94
2022-09-14T21:12:16.319Z,100660.31
2022-09-14T21:14:46.625Z,100659.50
2022-09-14T21:17:18.890Z,100666.16
2022-09-14T21:19:48.868Z,100656.66
2022-09-14T21:22:19.586Z,100660.16
2022-09-14T21:24:49.497Z,100661.25
2022-09-14T21:27:19.459Z,100651.97
2022-09-14T21:29:51.234Z,100653.03
2022-09-14T21:32:21.401Z,100651.25
2022-09-14T21:34:51.747Z,100656.25
2022-09-14T21:37:21.844Z,100662.91
2022-09-14T21:39:51.913Z,100662.34
2022-09-14T21:42:22.444Z,100662.19
2022-09-14T21:44:52.521Z,100658.53
2022-09-14T21:47:22.694Z,100662.63
2022-09-14T21:49:52.672Z,100664.50
2022-09-14T21:52:22.670Z,100660.16
2022-09-14T21:54:52.571Z,100659.44
2022-09-14T21:57:22.631Z,100659.50
2022-09-14T21:59:52.637Z,100641.59
2022-09-14T22:02:23.143Z,100661.91
2022-09-14T22:04:53.175Z,100658.84
2022-09-14T22:07:23.197Z,100653.94
2022-09-14T22:09:54.047Z,100653.69
2022-09-14T22:12:23.609Z,100661.75
2022-09-14T22:14:53.586Z,100658.69
2022-09-14T22:17:23.647Z,100658.31
2022-09-14T22:19:56.210Z,100665.78
2022-09-14T22:22:27.063Z,100674.22
2022-09-14T22:24:58.726Z,100674.00
2022-09-14T22:27:29.772Z,100672.59
2022-09-14T22:30:00.347Z,100676.97
2022-09-14T22:32:30.688Z,100674.69
2022-09-14T22:35:00.647Z,100668.03
2022-09-14T22:37:30.710Z,100662.88
2022-09-14T22:40:00.713Z,100670.13
2022-09-14T22:42:32.981Z,100672.22
2022-09-14T22:45:03.073Z,100673.03
2022-09-14T22:47:33.006Z,100669.75
2022-09-14T22:50:03.097Z,100668.69
2022-09-14T22:52:33.216Z,100675.06
2022-09-14T22:55:03.150Z,100670.28
2022-09-14T22:57:33.219Z,100675.59
2022-09-14T23:00:03.253Z,100677.81
2022-09-14T23:02:33.383Z,100669.53
2022-09-14T23:05:05.054Z,100674.44
2022-09-14T23:07:35.636Z,100668.16
2022-09-14T23:10:06.147Z,100677.66
2022-09-14T23:12:35.761Z,100678.63
2022-09-14T23:15:06.270Z,100679.81
2022-09-14T23:17:36.774Z,100682.41
2022-09-14T23:20:07.298Z,100679.88
2022-09-14T23:22:38.194Z,100678.97
2022-09-14T23:25:09.087Z,100681.31
2022-09-14T23:27:39.469Z,100689.53
2022-09-14T23:30:09.907Z,100681.63
2022-09-14T23:32:43.606Z,100679.91
2022-09-14T23:35:14.172Z,100676.53
2022-09-14T23:37:44.453Z,100676.44
2022-09-14T23:40:14.801Z,100683.56
2022-09-14T23:42:44.932Z,100683.50
2022-09-14T23:45:16.641Z,100678.25
2022-09-14T23:47:47.522Z,100675.69
2022-09-14T23:50:19.219Z,100680.13
2022-09-14T23:52:49.431Z,100674.63
2022-09-14T23:55:19.453Z,100677.44
2022-09-14T23:57:49.423Z,100680.50
